createdAt,value
2022-09-06T00:04:18.910Z,10.90
2022-09-06T00:09:24.301Z,10.90
2022-09-06T00:14:29.699Z,10.80
2022-09-06T00:19:35.050Z,10.60
2022-09-06T00:24:40.407Z,10.50
2022-09-06T00:29:45.642Z,10.40
2022-09-06T00:34:52.385Z,10.30
2022-09-06T00:39:58.431Z,10.20
2022-09-06T00:45:05.508Z,10.10
2022-09-06T00:50:13.717Z,10.00
2022-09-06T00:55:19.383Z,9.90
2022-09-06T01:00:24.655Z,9.80
2022-09-06T01:05:33.178Z,9.70
2022-09-06T01:11:05.332Z,9.60
2022-09-06T01:16:30.174Z,9.50
2022-09-06T01:21:53.196Z,9.50
2022-09-06T01:27:36.613Z,9.50
2022-09-06T01:32:56.821Z,9.40
2022-09-06T01:38:03.238Z,9.30
2022-09-06T01:43:11.713Z,9.20
2022-09-06T01:48:19.957Z,9.00
2022-09-06T01:53:47.458Z,8.90
2022-09-06T01:59:04.394Z,8.80
2022-09-06T02:04:24.443Z,8.70
2022-09-06T02:09:32.590Z,8.60
2022-09-06T02:14:46.761Z,8.50
2022-09-06T02:19:54.987Z,8.40
2022-09-06T02:25:01.473Z,8.40
2022-09-06T02:30:08.133Z,8.30
2022-09-06T02:35:16.319Z,8.30
2022-09-06T02:40:21.903Z,8.20
2022-09-06T02:45:27.330Z,8.10
2022-09-06T02:50:32.581Z,8.10
2022-09-06T02:55:39.151Z,8.00
2022-09-06T03:00:45.659Z,8.00
2022-09-06T03:05:53.183Z,8.00
2022-09-06T03:10:59.842Z,8.00
2022-09-06T03:16:05.066Z,8.10
2022-09-06T03:21:10.285Z,8.20
2022-09-06T03:26:15.488Z,8.40
2022-09-06T03:31:20.844Z,8.40
2022-09-06T03:36:27.009Z,8.50
2022-09-06T03:41:32.176Z,8.60
2022-09-06T03:46:38.083Z,8.50
2022-09-06T03:51:43.384Z,8.50
2022-09-06T03:56:48.711Z,8.50
2022-09-06T04:01:54.057Z,8.50
2022-09-06T04:06:59.578Z,8.50
2022-09-06T04:12:05.192Z,8.50
2022-09-06T04:17:10.544Z,8.40
2022-09-06T04:22:15.944Z,8.40
2022-09-06T04:27:22.437Z,8.30
2022-09-06T04:32:28.144Z,8.30
2022-09-06T04:37:35.188Z,8.20
2022-09-06T04:42:40.360Z,8.30
2022-09-06T04:47:46.046Z,8.30
2022-09-06T04:52:51.326Z,8.40
2022-09-06T04:57:58.280Z,8.60
2022-09-06T05:03:04.973Z,8.70
2022-09-06T05:08:10.397Z,8.90
2022-09-06T05:13:15.621Z,9.00
2022-09-06T05:18:20.915Z,9.10
2022-09-06T05:23:26.743Z,9.10
2022-09-06T05:28:32.224Z,9.30
2022-09-06T05:33:38.075Z,9.40
2022-09-06T05:38:43.446Z,9.50
2022-09-06T05:43:50.299Z,9.50
2022-09-06T05:49:08.847Z,9.70
2022-09-06T05:54:15.168Z,10.00
2022-09-06T05:59:20.293Z,10.30
2022-09-06T06:04:25.488Z,10.60
2022-09-06T06:09:30.772Z,10.90
2022-09-06T06:14:36.632Z,11.40
2022-09-06T06:19:41.858Z,11.70
2022-09-06T06:24:46.888Z,12.00
2022-09-06T06:29:52.742Z,12.40
2022-09-06T06:34:58.812Z,12.70
2022-09-06T06:40:05.787Z,13.00
2022-09-06T06:45:11.512Z,13.40
2022-09-06T06:50:16.907Z,13.70
2022-09-06T06:55:22.020Z,14.00
2022-09-06T07:00:30.951Z,14.40
2022-09-06T07:10:44.605Z,15.20
2022-09-06T07:15:49.731Z,15.40
2022-09-06T07:26:05.045Z,16.10
2022-09-06T07:36:18.127Z,16.60
2022-09-06T07:41:23.283Z,16.90
2022-09-06T07:46:28.514Z,17.30
2022-09-06T07:51:34.569Z,17.80
2022-09-06T07:56:40.592Z,17.70
2022-09-06T08:01:47.747Z,18.40
2022-09-06T08:12:07.620Z,18.80
2022-09-06T08:17:17.221Z,19.30
2022-09-06T08:22:24.105Z,19.60
2022-09-06T08:27:31.160Z,20.00
2022-09-06T08:32:36.902Z,20.50
2022-09-06T08:37:48.116Z,20.70
2022-09-06T08:42:55.708Z,20.90
2022-09-06T08:48:01.092Z,20.60
2022-09-06T08:53:17.986Z,21.00
2022-09-06T08:58:32.471Z,21.70
2022-09-06T09:03:42.963Z,22.30
2022-09-06T09:09:17.037Z,22.60
2022-09-06T09:14:33.569Z,22.90
2022-09-06T09:19:41.779Z,22.10
2022-09-06T09:24:51.007Z,21.70
2022-09-06T09:35:34.801Z,22.30
2022-09-06T09:41:03.112Z,22.70
2022-09-06T09:46:30.806Z,22.80
2022-09-06T09:51:41.436Z,22.60
2022-09-06T09:56:53.079Z,23.10
2022-09-06T10:02:02.208Z,22.90
2022-09-06T10:07:20.725Z,22.50
2022-09-06T10:12:44.029Z,22.70
2022-09-06T10:17:52.180Z,23.10
2022-09-06T10:28:41.551Z,23.50
2022-09-06T10:34:08.754Z,24.20
2022-09-06T10:39:37.437Z,24.20
2022-09-06T10:44:57.834Z,24.90
2022-09-06T10:50:05.634Z,23.90
2022-09-06T10:55:15.168Z,23.60
2022-09-06T11:00:21.863Z,24.20
2022-09-06T11:10:45.704Z,23.40
2022-09-06T11:16:08.955Z,23.30
2022-09-06T11:21:46.152Z,23.90
2022-09-06T11:27:13.389Z,23.50
2022-09-06T11:32:41.076Z,23.60
2022-09-06T11:37:50.892Z,24.40
2022-09-06T11:42:59.602Z,24.30
2022-09-06T11:48:28.795Z,24.80
2022-09-06T11:53:38.500Z,24.00
2022-09-06T11:58:49.025Z,24.30
2022-09-06T12:09:29.780Z,23.70
2022-09-06T12:14:41.636Z,23.80
2022-09-06T12:20:00.632Z,24.00
2022-09-06T12:25:26.647Z,24.10
2022-09-06T12:30:45.226Z,24.20
2022-09-06T12:41:00.653Z,23.60
2022-09-06T12:46:08.583Z,24.20
2022-09-06T12:51:24.276Z,24.20
2022-09-06T12:56:33.215Z,23.80
2022-09-06T13:01:40.011Z,24.10
2022-09-06T13:06:50.552Z,24.40
2022-09-06T13:11:58.792Z,24.30
2022-09-06T13:17:05.845Z,24.00
2022-09-06T13:22:21.826Z,23.50
2022-09-06T13:27:36.880Z,23.00
2022-09-06T13:32:50.503Z,23.00
2022-09-06T13:38:18.198Z,23.30
2022-09-06T13:43:25.664Z,23.20
2022-09-06T13:48:31.084Z,23.10
2022-09-06T13:53:37.630Z,22.60
2022-09-06T13:58:42.801Z,22.50
2022-09-06T14:03:52.976Z,21.90
2022-09-06T14:09:07.484Z,22.10
2022-09-06T14:14:13.133Z,21.90
2022-09-06T14:19:18.302Z,21.50
2022-09-06T14:24:26.036Z,21.50
2022-09-06T14:29:37.166Z,21.50
2022-09-06T14:34:49.590Z,21.50
2022-09-06T14:39:56.205Z,21.10
2022-09-06T14:45:04.091Z,20.90
2022-09-06T14:50:15.965Z,21.10
2022-09-06T14:55:23.111Z,20.80
2022-09-06T15:00:29.819Z,20.80
2022-09-06T15:05:42.534Z,20.90
2022-09-06T15:10:56.277Z,20.80
2022-09-06T15:16:02.335Z,20.90
2022-09-06T15:21:14.000Z,20.80
2022-09-06T15:26:20.936Z,20.70
2022-09-06T15:31:28.370Z,20.50
2022-09-06T15:36:37.273Z,20.20
2022-09-06T15:42:07.062Z,20.20
2022-09-06T15:47:15.541Z,20.00
2022-09-06T15:52:20.803Z,19.80
2022-09-06T15:57:29.165Z,19.60
2022-09-06T16:02:35.475Z,19.60
2022-09-06T16:07:42.349Z,19.50
2022-09-06T16:12:50.706Z,19.40
2022-09-06T16:18:03.247Z,19.30
2022-09-06T16:23:10.958Z,19.20
2022-09-06T16:28:19.910Z,19.20
2022-09-06T16:33:26.189Z,19.10
2022-09-06T16:38:36.225Z,19.00
2022-09-06T16:43:47.960Z,18.90
2022-09-06T16:49:00.332Z,18.80
2022-09-06T16:54:12.440Z,18.60
2022-09-06T16:59:19.067Z,18.50
2022-09-06T17:04:24.398Z,18.20
2022-09-06T17:09:29.643Z,17.90
2022-09-06T17:14:38.520Z,17.70
2022-09-06T17:19:44.861Z,17.50
2022-09-06T17:24:50.179Z,17.30
2022-09-06T17:29:56.885Z,17.10
2022-09-06T17:35:02.173Z,16.90
2022-09-06T17:40:11.909Z,16.70
2022-09-06T17:45:28.982Z,16.50
2022-09-06T17:50:35.889Z,16.30
2022-09-06T17:55:44.539Z,16.10
2022-09-06T18:00:50.547Z,16.00
2022-09-06T18:05:55.884Z,15.90
2022-09-06T18:11:03.393Z,15.70
2022-09-06T18:16:08.931Z,15.50
2022-09-06T18:21:14.247Z,15.40
2022-09-06T18:26:19.508Z,15.20
2022-09-06T18:31:27.859Z,15.10
2022-09-06T18:36:33.144Z,14.90
2022-09-06T18:41:57.572Z,14.80
2022-09-06T18:47:09.153Z,14.70
2022-09-06T18:52:15.184Z,14.60
2022-09-06T18:57:21.805Z,14.50
2022-09-06T19:02:29.208Z,14.30
2022-09-06T19:07:37.050Z,14.20
2022-09-06T19:12:42.961Z,14.10
2022-09-06T19:17:51.136Z,13.90
2022-09-06T19:22:56.393Z,13.70
2022-09-06T19:28:02.379Z,13.50
2022-09-06T19:33:08.815Z,13.30
2022-09-06T19:38:14.099Z,13.20
2022-09-06T19:43:19.282Z,13.00
2022-09-06T19:48:24.497Z,12.90
2022-09-06T19:53:31.365Z,12.70
2022-09-06T19:58:37.089Z,12.60
2022-09-06T20:03:43.713Z,12.40
2022-09-06T20:08:52.173Z,12.40
2022-09-06T20:13:57.693Z,12.20
2022-09-06T20:19:04.388Z,12.10
2022-09-06T20:24:09.753Z,12.00
2022-09-06T20:29:15.085Z,12.00
2022-09-06T20:34:20.493Z,11.90
2022-09-06T20:39:25.905Z,11.70
2022-09-06T20:44:31.198Z,11.60
2022-09-06T20:49:36.577Z,11.50
2022-09-06T20:54:41.816Z,11.30
2022-09-06T20:59:47.389Z,11.30
2022-09-06T21:04:53.055Z,11.20
2022-09-06T21:09:58.372Z,11.10
2022-09-06T21:15:06.025Z,11.10
2022-09-06T21:20:12.987Z,11.00
2022-09-06T21:25:18.244Z,10.90
2022-09-06T21:30:24.807Z,10.90
2022-09-06T21:35:30.063Z,10.70
2022-09-06T21:40:38.300Z,10.60
2022-09-06T21:45:44.016Z,10.50
2022-09-06T21:50:52.979Z,10.40
2022-09-06T21:56:02.730Z,10.40
2022-09-06T22:01:08.814Z,10.30
2022-09-06T22:06:20.269Z,10.20
2022-09-06T22:11:28.057Z,10.10
2022-09-06T22:16:35.951Z,10.10
2022-09-06T22:21:41.818Z,10.00
2022-09-06T22:26:47.072Z,9.90
2022-09-06T22:31:52.865Z,9.80
2022-09-06T22:36:58.210Z,9.80
2022-09-06T22:42:03.527Z,9.70
2022-09-06T22:47:09.035Z,9.70
2022-09-06T22:52:14.382Z,9.60
2022-09-06T22:57:19.550Z,9.60
2022-09-06T23:02:24.806Z,9.50
2022-09-06T23:07:29.919Z,9.40
2022-09-06T23:12:35.317Z,9.40
2022-09-06T23:17:40.924Z,9.30
2022-09-06T23:22:46.491Z,9.20
2022-09-06T23:27:52.031Z,9.10
2022-09-06T23:32:57.593Z,9.10
2022-09-06T23:38:02.731Z,9.00
2022-09-06T23:43:07.885Z,9.00
2022-09-06T23:48:13.051Z,8.90
2022-09-06T23:53:20.619Z,8.80
2022-09-06T23:58:26.242Z,8.70
